Time;durP1;ratioP1;P1;durP2;ratioP2;P2;SDS_P1;SDS_P2;PMS_P1;PMS_P2;Temp;Humidity;BMP_temperature;BMP_pressure;BME280_temperature;BME280_humidity;BME280_pressure;Samples;Min_cycle;Max_cycle;Signal;HPM_P1;HPM_P2
2022/01/04 00:01:33;;;;;;;40.52;14.75;;;;;;;5.96;100.00;97952.22;2131549;84;21048;-63
2022/01/04 00:04:34;;;;;;;39.00;15.48;;;;;;;5.91;100.00;97945.97;2147981;83;20968;-64
2022/01/04 00:07:34;;;;;;;39.13;13.50;;;;;;;5.92;100.00;97941.59;2131411;84;21021;-63
2022/01/04 00:10:35;;;;;;;44.45;16.90;;;;;;;5.87;100.00;97938.78;2147844;83;20944;-63
2022/01/04 00:13:35;;;;;;;41.08;15.98;;;;;;;5.83;100.00;97941.20;2131337;84;21089;-64
2022/01/04 00:16:36;;;;;;;43.00;15.63;;;;;;;5.81;100.00;97932.62;2147883;83;20963;-63
2022/01/04 00:19:36;;;;;;;44.50;17.15;;;;;;;5.89;100.00;97928.31;2131533;84;21049;-63
2022/01/04 00:22:37;;;;;;;41.02;15.93;;;;;;;5.93;100.00;97928.97;2148054;83;20967;-63
2022/01/04 00:25:38;;;;;;;42.03;15.32;;;;;;;5.92;100.00;97924.23;2131462;84;21056;-63
2022/01/04 00:28:38;;;;;;;37.15;15.20;;;;;;;5.94;100.00;97925.45;2147930;83;21022;-63
2022/01/04 00:31:39;;;;;;;43.00;14.98;;;;;;;5.93;100.00;97917.25;2131329;84;21037;-64
2022/01/04 00:34:41;;;;;;;42.55;15.38;;;;;;;5.94;100.00;97916.34;2147832;83;21035;-63
2022/01/04 00:37:41;;;;;;;43.47;15.50;;;;;;;5.94;100.00;97908.52;2131776;84;21000;-64
2022/01/04 00:40:42;;;;;;;41.58;14.90;;;;;;;5.94;100.00;97903.32;2147816;83;21063;-63
2022/01/04 00:43:45;;;;;;;42.33;15.10;;;;;;;5.93;100.00;97894.66;2131024;84;21033;-62
2022/01/04 00:46:45;;;;;;;41.77;15.55;;;;;;;5.92;100.00;97892.14;2147902;83;21055;-63
2022/01/04 00:49:46;;;;;;;44.40;16.30;;;;;;;5.87;100.00;97897.61;2131505;84;21076;-63
2022/01/04 00:52:46;;;;;;;44.80;14.87;;;;;;;5.85;100.00;97902.91;2147747;83;21046;-63
2022/01/04 00:55:47;;;;;;;41.92;15.72;;;;;;;5.85;100.00;97896.87;2131316;84;21072;-63
2022/01/04 00:58:47;;;;;;;42.55;15.15;;;;;;;5.86;100.00;97892.88;2147875;82;21048;-63
2022/01/04 01:01:48;;;;;;;40.85;14.58;;;;;;;5.86;100.00;97888.98;2131461;84;21087;-63
2022/01/04 01:04:49;;;;;;;38.25;13.88;;;;;;;5.86;100.00;97879.87;2148003;83;21026;-63
2022/01/04 01:07:50;;;;;;;41.37;14.90;;;;;;;5.87;100.00;97878.09;2131644;84;20996;-63
2022/01/04 01:10:50;;;;;;;41.83;15.72;;;;;;;5.88;100.00;97886.28;2148183;83;20939;-63
2022/01/04 01:13:51;;;;;;;35.83;15.08;;;;;;;5.90;100.00;97884.42;2131494;84;20977;-64
2022/01/04 01:16:51;;;;;;;36.73;14.18;;;;;;;5.91;100.00;97877.00;2148150;83;21099;-63
2022/01/04 01:19:52;;;;;;;41.90;14.58;;;;;;;5.92;100.00;97879.12;2131512;84;21472;-64
2022/01/04 01:22:52;;;;;;;38.78;15.35;;;;;;;5.93;100.00;97874.30;2147877;83;21146;-64
2022/01/04 01:25:53;;;;;;;42.13;15.38;;;;;;;5.92;100.00;97873.92;2131743;84;21044;-64
2022/01/04 01:28:53;;;;;;;33.90;13.28;;;;;;;5.94;100.00;97872.09;2148356;83;20979;-63
2022/01/04 01:31:54;;;;;;;37.35;14.35;;;;;;;5.96;100.00;97863.27;2131682;84;21024;-63
2022/01/04 01:34:54;;;;;;;36.30;13.48;;;;;;;5.97;100.00;97853.69;2148196;83;20999;-64
2022/01/04 01:37:55;;;;;;;37.78;14.20;;;;;;;5.98;100.00;97854.92;2131496;84;21031;-63
2022/01/04 01:40:55;;;;;;;38.60;14.40;;;;;;;5.97;100.00;97836.33;2148080;83;21451;-63
2022/01/04 01:43:56;;;;;;;35.10;13.53;;;;;;;5.97;100.00;97827.66;2131443;84;20997;-64
2022/01/04 01:46:56;;;;;;;39.58;13.60;;;;;;;5.95;100.00;97818.64;2148204;83;21003;-63
2022/01/04 01:49:57;;;;;;;34.48;13.62;;;;;;;5.92;100.00;97819.27;2131381;84;21104;-63
2022/01/04 01:52:58;;;;;;;38.63;14.40;;;;;;;5.90;100.00;97821.95;2147924;83;21094;-63
2022/01/04 01:55:58;;;;;;;40.40;15.45;;;;;;;5.88;100.00;97819.92;2131444;84;20973;-63
2022/01/04 01:58:59;;;;;;;42.80;15.05;;;;;;;5.88;100.00;97824.65;2147907;83;21543;-62
2022/01/04 02:01:59;;;;;;;40.60;15.93;;;;;;;5.86;100.00;97815.25;2131300;84;21012;-62
2022/01/04 02:05:00;;;;;;;34.63;14.30;;;;;;;5.84;100.00;97812.73;2148210;83;21043;-63
2022/01/04 02:08:00;;;;;;;41.35;14.43;;;;;;;5.82;100.00;97812.00;2131606;84;21028;-63
2022/01/04 02:11:01;;;;;;;41.25;15.88;;;;;;;5.80;100.00;97815.61;2148209;83;21044;-63
2022/01/04 02:14:01;;;;;;;39.78;14.13;;;;;;;5.79;100.00;97809.58;2131446;84;20985;-62
2022/01/04 02:17:02;;;;;;;36.90;14.03;;;;;;;5.80;100.00;97803.42;2148030;83;21007;-63
2022/01/04 02:20:02;;;;;;;37.05;13.62;;;;;;;5.78;100.00;97802.69;2131460;84;21044;-63
2022/01/04 02:23:03;;;;;;;35.17;13.08;;;;;;;5.78;100.00;97801.39;2148062;83;21074;-63
2022/01/04 02:26:04;;;;;;;35.40;13.65;;;;;;;5.76;100.00;97803.25;2131349;84;21001;-63
2022/01/04 02:29:04;;;;;;;36.05;13.55;;;;;;;5.75;100.00;97809.38;2148161;83;20947;-63
2022/01/04 02:32:04;;;;;;;36.85;13.10;;;;;;;5.73;100.00;97808.16;2131396;84;20965;-63
2022/01/04 02:35:05;;;;;;;38.05;13.15;;;;;;;5.72;100.00;97807.78;2148152;83;20968;-63
2022/01/04 02:38:05;;;;;;;36.45;12.47;;;;;;;5.71;100.00;97806.58;2131313;84;20980;-63
2022/01/04 02:41:06;;;;;;;32.75;11.97;;;;;;;5.70;100.00;97807.48;2148072;83;21506;-63
2022/01/04 02:44:06;;;;;;;34.50;12.15;;;;;;;5.70;100.00;97795.78;2131445;84;21032;-64
2022/01/04 02:47:07;;;;;;;33.38;10.90;;;;;;;5.70;100.00;97794.48;2147861;83;21051;-62
2022/01/04 02:50:08;;;;;;;29.98;10.75;;;;;;;5.71;100.00;97785.76;2131428;84;20977;-63
2022/01/04 02:53:08;;;;;;;29.25;10.60;;;;;;;5.69;100.00;97778.05;2148125;83;21060;-64
2022/01/04 02:56:08;;;;;;;32.03;11.83;;;;;;;5.68;100.00;97776.36;2131549;84;20993;-63
2022/01/04 02:59:09;;;;;;;29.00;11.70;;;;;;;5.67;100.00;97773.38;2152767;83;20998;-62
2022/01/04 03:02:09;;;;;;;32.83;11.30;;;;;;;5.67;100.00;97779.88;2134786;83;20961;-63
2022/01/04 03:05:10;;;;;;;31.73;10.93;;;;;;;5.67;100.00;97773.84;2154910;83;20936;-63
2022/01/04 03:08:10;;;;;;;30.97;10.82;;;;;;;5.67;100.00;97772.55;2134811;83;20980;-63
2022/01/04 03:11:10;;;;;;;30.72;11.65;;;;;;;5.68;100.00;97771.62;2154679;83;21023;-63
2022/01/04 03:14:11;;;;;;;32.00;12.03;;;;;;;5.66;100.00;97764.36;2134874;83;21515;-63
2022/01/04 03:17:11;;;;;;;31.70;11.35;;;;;;;5.64;100.00;97767.05;2154792;83;20971;-62
2022/01/04 03:20:12;;;;;;;32.80;12.00;;;;;;;5.64;100.00;97757.12;2135030;83;21051;-63
2022/01/04 03:23:13;;;;;;;33.60;12.43;;;;;;;5.64;100.00;97755.82;2154593;83;21085;-63
2022/01/04 03:26:13;;;;;;;35.25;13.75;;;;;;;5.64;100.00;97748.02;2135021;83;21043;-63
2022/01/04 03:29:13;;;;;;;34.88;12.93;;;;;;;5.65;100.00;97734.09;2154774;83;21027;-63
2022/01/04 03:32:14;;;;;;;32.78;12.35;;;;;;;5.63;100.00;97732.88;2134713;83;21548;-63
2022/01/04 03:35:16;;;;;;;35.08;13.00;;;;;;;5.65;100.00;97730.19;2154785;83;21466;-63
2022/01/04 03:38:17;;;;;;;36.23;14.50;;;;;;;5.62;100.00;97724.69;2135013;83;20985;-63
2022/01/04 03:41:18;;;;;;;39.50;14.10;;;;;;;5.61;100.00;97715.67;2154480;83;21026;-63
2022/01/04 03:44:20;;;;;;;35.73;13.72;;;;;;;5.59;100.00;97714.47;2134890;83;21012;-63
2022/01/04 03:47:20;;;;;;;34.10;13.83;;;;;;;5.55;100.00;97712.50;2154732;83;21054;-63
2022/01/04 03:50:21;;;;;;;35.68;14.50;;;;;;;5.53;100.00;97712.20;2135006;83;20976;-63
2022/01/04 03:53:22;;;;;;;37.65;14.70;;;;;;;5.50;100.00;97714.55;2154752;83;21014;-61
2022/01/04 03:56:22;;;;;;;36.73;14.95;;;;;;;5.50;100.00;97714.98;2135004;83;20992;-63
2022/01/04 03:59:22;;;;;;;40.50;14.95;;;;;;;5.50;100.00;97708.48;2149712;82;21078;-63
2022/01/04 04:02:23;;;;;;;37.05;15.45;;;;;;;5.47;100.00;97705.59;2131367;84;21040;-62
2022/01/04 04:05:23;;;;;;;37.17;16.57;;;;;;;5.46;100.00;97700.48;2147856;83;21581;-63
2022/01/04 04:08:24;;;;;;;39.85;17.55;;;;;;;5.49;100.00;97695.12;2130955;84;21012;-63
2022/01/04 04:11:24;;;;;;;36.63;15.48;;;;;;;5.49;100.00;97693.35;2147751;83;20995;-63
2022/01/04 04:14:25;;;;;;;37.08;16.23;;;;;;;5.49;100.00;97682.95;2131502;84;21048;-64
2022/01/04 04:17:25;;;;;;;36.58;14.55;;;;;;;5.52;100.00;97695.77;2148263;83;20971;-63
2022/01/04 04:20:26;;;;;;;34.23;13.38;;;;;;;5.55;100.00;97689.56;2131378;84;21016;-63
2022/01/04 04:23:27;;;;;;;37.60;15.78;;;;;;;5.58;100.00;97688.55;2147928;83;21482;-63
2022/01/04 04:26:27;;;;;;;33.08;14.33;;;;;;;5.58;100.00;97688.07;2131311;84;21048;-63
2022/01/04 04:29:28;;;;;;;30.27;13.55;;;;;;;5.59;100.00;97682.39;2148325;83;20971;-63
2022/01/04 04:32:28;;;;;;;40.73;14.38;;;;;;;5.62;100.00;97684.37;2131575;84;21004;-63
2022/01/04 04:35:30;;;;;;;36.30;15.30;;;;;;;5.65;100.00;97677.68;2148100;83;21019;-63
2022/01/04 04:38:30;;;;;;;32.48;14.68;;;;;;;5.67;100.00;97677.11;2131784;84;21049;-63
2022/01/04 04:41:31;;;;;;;34.35;14.80;;;;;;;5.67;100.00;97675.81;2148003;83;21526;-63
2022/01/04 04:44:32;;;;;;;33.73;15.28;;;;;;;5.67;100.00;97669.78;2131246;84;21016;-63
2022/01/04 04:47:33;;;;;;;38.33;16.37;;;;;;;5.66;100.00;97668.95;2148325;83;21110;-63
2022/01/04 04:50:34;;;;;;;35.90;15.08;;;;;;;5.66;100.00;97665.50;2131446;84;21036;-63
2022/01/04 04:53:34;;;;;;;35.08;15.65;;;;;;;5.70;100.00;97657.88;2148043;83;21076;-63
2022/01/04 04:56:38;;;;;;;36.58;16.45;;;;;;;5.69;100.00;97649.73;2131336;84;21464;-63
2022/01/04 04:59:37;;;;;;;56.33;35.95;;;;;;;5.67;100.00;97642.46;2129193;82;21105;-63
2022/01/04 05:02:37;;;;;;;51.42;33.67;;;;;;;5.64;100.00;97649.16;2135433;83;21519;-62
2022/01/04 05:05:38;;;;;;;63.58;36.58;;;;;;;5.61;100.00;97654.07;2158371;82;21054;-64
2022/01/04 05:08:38;;;;;;;63.87;34.45;;;;;;;5.57;100.00;97645.24;2135406;83;21020;-63
2022/01/04 05:11:39;;;;;;;47.60;22.82;;;;;;;5.53;100.00;97648.03;2158146;82;20980;-63
2022/01/04 05:14:45;;;;;;;48.63;21.48;;;;;;;5.49;100.00;97651.73;2135472;83;20933;-63
2022/01/04 05:17:42;;;;;;;49.35;20.75;;;;;;;5.42;100.00;97653.03;2134258;82;21491;-63
2022/01/04 05:20:42;;;;;;;50.52;23.07;;;;;;;5.37;100.00;97646.80;2135333;83;21020;-63
2022/01/04 05:23:43;;;;;;;61.20;36.23;;;;;;;5.35;100.00;97643.44;2157975;82;21050;-63
2022/01/04 05:26:44;;;;;;;85.83;50.50;;;;;;;5.34;100.00;97637.03;2135105;83;21040;-63
2022/01/04 05:29:44;;;;;;;66.90;38.80;;;;;;;5.31;100.00;97631.53;2158083;82;21526;-63
2022/01/04 05:35:48;;;;;;;69.67;40.58;;;;;;;5.35;100.00;97627.84;2133592;82;20951;-63
2022/01/04 05:38:49;;;;;;;71.07;41.40;;;;;;;5.34;100.00;97630.09;2135499;83;21003;-63
2022/01/04 05:41:50;;;;;;;82.35;48.83;;;;;;;5.32;100.00;97626.72;2158200;82;21027;-63
2022/01/04 05:44:50;;;;;;;87.35;51.18;;;;;;;5.32;100.00;97625.42;2135243;83;21041;-63
2022/01/04 05:47:50;;;;;;;76.82;43.28;;;;;;;5.30;100.00;97614.28;2158124;82;21458;-62
2022/01/04 05:50:51;;;;;;;67.37;33.23;;;;;;;5.28;100.00;97617.42;2135257;83;21490;-63
2022/01/04 05:53:52;;;;;;;56.53;27.17;;;;;;;5.28;100.00;97617.42;2158116;82;21010;-63
2022/01/04 05:56:52;;;;;;;58.42;28.70;;;;;;;5.32;100.00;97621.52;2135363;83;21375;-63
2022/01/04 05:59:53;;;;;;;68.70;37.23;;;;;;;5.29;100.00;97613.08;2151135;82;21031;-63
2022/01/04 06:02:54;;;;;;;55.63;28.00;;;;;;;5.24;100.00;97605.52;2131450;84;21048;-63
2022/01/04 06:05:55;;;;;;;68.45;38.20;;;;;;;5.26;100.00;97599.79;2147989;83;20952;-63
2022/01/04 06:08:55;;;;;;;73.62;38.20;;;;;;;5.22;100.00;97603.49;2131426;84;21012;-62
2022/01/04 06:12:00;;;;;;;73.72;39.08;;;;;;;5.14;100.00;97607.85;2147889;83;21497;-63
2022/01/04 06:14:58;;;;;;;69.40;39.85;;;;;;;5.13;100.00;97607.91;2105805;84;20969;-63
2022/01/04 06:17:59;;;;;;;88.52;51.23;;;;;;;5.11;100.00;97595.00;2148063;83;21526;-63
2022/01/04 06:20:59;;;;;;;75.78;41.68;;;;;;;5.08;100.00;97604.28;2131353;84;21028;-63
2022/01/04 06:24:00;;;;;;;78.55;43.65;;;;;;;5.03;100.00;97608.94;2147933;83;21079;-62
2022/01/04 06:27:00;;;;;;;89.25;49.05;;;;;;;5.09;100.00;97607.74;2131259;84;21091;-63
2022/01/04 06:30:01;;;;;;;73.12;39.58;;;;;;;5.07;100.00;97602.64;2147981;83;20983;-63
2022/01/04 06:33:01;;;;;;;72.55;37.63;;;;;;;5.07;100.00;97597.88;2131509;84;21079;-63
2022/01/04 06:36:03;;;;;;;76.37;36.38;;;;;;;5.08;100.00;97595.66;2148178;83;21004;-62
2022/01/04 06:39:04;;;;;;;83.43;42.70;;;;;;;5.06;100.00;97589.26;2131911;84;21055;-63
2022/01/04 06:42:04;;;;;;;106.75;58.90;;;;;;;5.13;100.00;97582.77;2148038;83;21051;-63
2022/01/04 06:45:05;;;;;;;76.80;43.92;;;;;;;5.17;100.00;97579.08;2131433;84;20957;-62
2022/01/04 06:48:05;;;;;;;86.45;45.73;;;;;;;5.19;100.00;97585.00;2148246;83;20968;-62
2022/01/04 06:51:06;;;;;;;89.67;46.37;;;;;;;5.26;100.00;97580.73;2131073;84;21072;-62
2022/01/04 06:54:06;;;;;;;95.20;50.67;;;;;;;5.26;100.00;97579.44;2148296;83;21015;-63
2022/01/04 06:57:07;;;;;;;96.57;58.65;;;;;;;5.26;100.00;97571.63;2131540;84;21024;-63
2022/01/04 07:00:07;;;;;;;97.62;62.23;;;;;;;5.25;100.00;97566.91;2152438;82;21011;-62
2022/01/04 07:03:08;;;;;;;86.75;48.08;;;;;;;5.30;100.00;97557.53;2134863;83;21484;-62
2022/01/04 07:06:09;;;;;;;86.05;46.73;;;;;;;5.33;100.00;97550.39;2154790;83;21026;-63
2022/01/04 07:09:09;;;;;;;75.78;38.25;;;;;;;5.38;100.00;97548.34;2135043;83;20964;-63
2022/01/04 07:12:10;;;;;;;73.15;36.93;;;;;;;5.45;100.00;97538.41;2154809;83;20971;-63
2022/01/04 07:15:10;;;;;;;79.37;38.90;;;;;;;5.50;100.00;97538.98;2134578;83;21036;-63
2022/01/04 07:18:11;;;;;;;83.40;41.70;;;;;;;5.53;100.00;97537.94;2154741;83;21039;-63
2022/01/04 07:21:11;;;;;;;90.07;49.95;;;;;;;5.59;100.00;97538.02;2134896;83;20979;-62
2022/01/04 07:24:12;;;;;;;78.47;38.08;;;;;;;5.65;100.00;97537.20;2154830;83;21518;-62
2022/01/04 07:27:13;;;;;;;76.45;39.40;;;;;;;5.72;100.00;97531.16;2135217;83;21063;-63
2022/01/04 07:30:13;;;;;;;72.35;37.53;;;;;;;5.73;100.00;97523.70;2154932;82;21063;-62
2022/01/04 07:33:14;;;;;;;77.20;40.05;;;;;;;5.79;100.00;97515.98;2134960;83;20996;-63
2022/01/04 07:36:15;;;;;;;79.20;39.83;;;;;;;5.88;100.00;97520.15;2154723;83;20972;-63
2022/01/04 07:39:16;;;;;;;84.70;45.28;;;;;;;5.93;100.00;97523.76;2134880;83;21547;-62
2022/01/04 07:42:16;;;;;;;90.57;42.58;;;;;;;6.03;100.00;97521.45;2154670;83;21042;-62
2022/01/04 07:45:17;;;;;;;94.83;49.48;;;;;;;6.08;100.00;97512.89;2134948;83;21039;-63
2022/01/04 07:48:17;;;;;;;104.97;57.95;;;;;;;6.14;100.00;97514.27;2155027;83;20954;-63
2022/01/04 07:51:18;;;;;;;117.57;62.30;;;;;;;6.20;100.00;97502.98;2134808;83;20964;-63
2022/01/04 07:54:18;;;;;;;104.97;56.02;;;;;;;6.25;100.00;97496.20;2154287;83;21026;-63
2022/01/04 07:57:19;;;;;;;102.55;52.38;;;;;;;6.28;100.00;97496.44;2134900;83;20961;-63
2022/01/04 08:00:20;;;;;;;96.92;53.48;;;;;;;6.33;100.00;97492.61;2149645;82;21562;-63
2022/01/04 08:03:21;;;;;;;97.37;49.58;;;;;;;6.40;100.00;97486.55;2131565;84;21471;-63
2022/01/04 08:06:21;;;;;;;91.63;48.70;;;;;;;6.49;100.00;97487.70;2148481;83;20983;-63
2022/01/04 08:09:21;;;;;;;75.47;38.98;;;;;;;6.61;100.00;97483.00;2131704;84;20977;-63
2022/01/04 08:12:22;;;;;;;83.82;40.52;;;;;;;6.70;100.00;97482.38;2148102;83;20975;-63
2022/01/04 08:15:23;;;;;;;83.15;41.45;;;;;;;6.74;100.00;97481.24;2131519;84;21123;-63
2022/01/04 08:18:23;;;;;;;80.05;38.90;;;;;;;6.83;100.00;97471.14;2148088;83;21018;-63
2022/01/04 08:21:24;;;;;;;88.42;40.35;;;;;;;6.88;100.00;97461.22;2131428;84;20969;-63
2022/01/04 08:24:24;;;;;;;94.77;40.80;;;;;;;6.94;100.00;97457.75;2148310;83;21014;-63
2022/01/04 08:27:25;;;;;;;83.92;38.75;;;;;;;6.96;100.00;97452.42;2131696;84;20980;-63
2022/01/04 08:30:26;;;;;;;87.72;44.40;;;;;;;6.99;100.00;97442.27;2148303;83;20995;-63
2022/01/04 08:33:26;;;;;;;86.95;45.05;;;;;;;6.97;100.00;97438.46;2131297;84;21080;-63
2022/01/04 08:36:28;;;;;;;98.47;59.85;;;;;;;7.04;100.00;97429.28;2148157;83;21526;-63
2022/01/04 08:39:28;;;;;;;103.15;59.77;;;;;;;7.01;100.00;97427.34;2131856;84;21000;-64
2022/01/04 08:42:29;;;;;;;120.37;64.53;;;;;;;7.08;100.00;97413.80;2148047;83;21085;-64
2022/01/04 08:45:29;;;;;;;84.05;42.78;;;;;;;7.17;100.00;97403.19;2131518;84;20966;-63
2022/01/04 08:48:30;;;;;;;81.02;38.40;;;;;;;7.24;100.00;97395.30;2148129;83;21011;-63
2022/01/04 08:51:31;;;;;;;73.70;38.05;;;;;;;7.31;100.00;97389.16;2131373;84;21508;-64
2022/01/04 08:54:31;;;;;;;77.97;39.13;;;;;;;7.37;100.00;97382.67;2147931;83;21510;-63
2022/01/04 08:57:31;;;;;;;79.00;38.95;;;;;;;7.45;100.00;97377.27;2131801;84;21036;-64
2022/01/04 09:00:32;;;;;;;77.62;41.23;;;;;;;7.45;100.00;97372.05;2147789;82;21137;-63
2022/01/04 09:03:33;;;;;;;76.42;39.18;;;;;;;7.51;100.00;97364.27;2131014;84;21044;-63
2022/01/04 09:06:34;;;;;;;68.70;31.73;;;;;;;7.54;100.00;97361.46;2148126;83;21026;-63
2022/01/04 09:09:35;;;;;;;65.90;31.12;;;;;;;7.50;100.00;97354.80;2131641;84;21578;-64
2022/01/04 09:12:45;;;;;;;69.60;33.30;;;;;;;7.54;100.00;97351.48;2148039;83;20995;-64
2022/01/04 09:21:41;;;;;;;53.58;26.20;;;;;;;7.59;100.00;97324.11;2106000;84;21000;-64
2022/01/04 09:24:41;;;;;;;54.45;25.85;;;;;;;7.66;100.00;97319.73;2148061;83;21028;-64
2022/01/04 09:27:42;;;;;;;48.35;23.70;;;;;;;7.71;100.00;97314.55;2131034;84;21033;-64
2022/01/04 09:30:43;;;;;;;40.98;19.98;;;;;;;7.76;100.00;97311.62;2147802;83;21499;-64
2022/01/04 09:33:44;;;;;;;46.30;21.95;;;;;;;7.78;100.00;97313.62;2131222;84;22469;-63
2022/01/04 09:36:44;;;;;;;49.23;22.95;;;;;;;7.87;100.00;97305.59;2148281;83;20991;-64
2022/01/04 09:39:44;;;;;;;48.20;25.40;;;;;;;7.93;100.00;97299.45;2131635;84;20996;-63
2022/01/04 09:42:45;;;;;;;48.85;26.80;;;;;;;7.99;100.00;97296.86;2148056;83;21082;-63
2022/01/04 09:45:46;;;;;;;45.03;24.35;;;;;;;8.04;100.00;97288.19;2131504;84;20957;-64
2022/01/04 09:48:46;;;;;;;50.58;24.98;;;;;;;8.09;100.00;97286.08;2148097;83;21067;-64
2022/01/04 09:51:46;;;;;;;40.90;18.85;;;;;;;8.16;100.00;97282.53;2131447;84;21487;-64
2022/01/04 09:54:47;;;;;;;37.70;18.67;;;;;;;8.23;100.00;97277.66;2148083;83;20987;-64
2022/01/04 09:57:47;;;;;;;45.75;19.07;;;;;;;8.27;100.00;97268.16;2131478;84;20996;-64
2022/01/04 10:00:48;;;;;;;32.50;16.15;;;;;;;8.34;100.00;97269.84;2148206;83;21011;-64
2022/01/04 10:03:48;;;;;;;35.08;17.00;;;;;;;8.35;100.00;97266.73;2131728;84;21001;-64
2022/01/04 10:06:49;;;;;;;38.30;19.87;;;;;;;8.34;100.00;97265.92;2148003;83;21012;-64
2022/01/04 10:09:52;;;;;;;34.63;18.37;;;;;;;8.31;100.00;97260.94;2131569;84;21012;-65
2022/01/04 10:12:52;;;;;;;43.23;25.05;;;;;;;8.34;100.00;97263.31;2120348;83;21011;-64
2022/01/04 10:15:53;;;;;;;42.13;24.47;;;;;;;8.35;100.00;97266.28;2131338;84;21096;-64
2022/01/04 10:18:54;;;;;;;36.68;20.37;;;;;;;8.38;100.00;97260.00;2148056;83;21062;-63
2022/01/04 10:21:54;;;;;;;40.98;25.48;;;;;;;8.40;100.00;97257.59;2131309;84;21603;-64
2022/01/04 10:24:55;;;;;;;46.53;30.52;;;;;;;8.44;100.00;97259.52;2147740;83;21033;-64
2022/01/04 10:27:55;;;;;;;42.98;31.12;;;;;;;8.46;100.00;97242.81;2131647;84;21048;-64
2022/01/04 10:30:56;;;;;;;30.17;14.78;;;;;;;8.58;100.00;97237.58;2148282;83;21003;-64
2022/01/04 10:33:56;;;;;;;26.60;12.23;;;;;;;8.62;100.00;97241.59;2131909;84;20969;-64
2022/01/04 10:36:57;;;;;;;27.25;11.03;;;;;;;8.64;100.00;97226.16;2147975;83;20986;-63
2022/01/04 10:39:57;;;;;;;25.35;9.60;;;;;;;8.59;100.00;97228.77;2131460;84;21523;-65
2022/01/04 10:42:58;;;;;;;29.98;10.93;;;;;;;8.58;100.00;97226.64;2131394;84;21523;-64
2022/01/04 10:45:58;;;;;;;32.23;9.55;;;;;;;8.61;100.00;97222.47;2148076;83;21035;-65
2022/01/04 10:48:59;;;;;;;28.40;10.10;;;;;;;8.60;100.00;97213.45;2131644;84;21073;-64
2022/01/04 10:52:00;;;;;;;29.40;11.50;;;;;;;8.56;100.00;97206.80;2148084;82;20987;-64
2022/01/04 10:55:00;;;;;;;28.27;12.88;;;;;;;8.56;100.00;97193.73;2131477;84;21004;-65
2022/01/04 10:58:01;;;;;;;34.25;14.00;;;;;;;8.53;100.00;97196.59;2147698;83;21071;-64
2022/01/04 11:01:02;;;;;;;36.17;15.80;;;;;;;8.44;100.00;97189.82;2131139;83;21064;-64
2022/01/04 11:04:02;;;;;;;35.50;16.82;;;;;;;8.40;100.00;97188.85;2147958;83;21046;-64
2022/01/04 11:07:03;;;;;;;36.45;16.15;;;;;;;8.38;100.00;97182.44;2131313;84;21071;-64
2022/01/04 11:10:03;;;;;;;35.63;16.57;;;;;;;8.36;100.00;97166.52;2148288;83;20975;-64
2022/01/04 11:13:04;;;;;;;30.52;14.18;;;;;;;8.37;100.00;97159.05;2131351;84;21052;-64
2022/01/04 11:16:06;;;;;;;39.73;18.35;;;;;;;8.40;100.00;97146.56;2147842;83;21494;-64
2022/01/04 11:19:07;;;;;;;33.78;15.70;;;;;;;8.39;100.00;97141.45;2131657;84;20961;-64
2022/01/04 11:22:08;;;;;;;33.48;16.17;;;;;;;8.33;100.00;97133.17;2147825;83;21102;-64
2022/01/04 11:25:09;;;;;;;34.67;16.73;;;;;;;8.31;100.00;97128.52;2131680;84;21003;-64
2022/01/04 11:28:09;;;;;;;32.60;15.43;;;;;;;8.36;100.00;97119.50;2147954;83;21023;-64
2022/01/04 11:31:10;;;;;;;35.48;16.30;;;;;;;8.34;100.00;97117.02;2131485;84;21048;-65
2022/01/04 11:34:10;;;;;;;35.05;15.63;;;;;;;8.39;100.00;97106.19;2148506;83;20968;-64
2022/01/04 11:37:11;;;;;;;32.83;13.13;;;;;;;8.38;100.00;97098.02;2131401;84;20983;-64
2022/01/04 11:40:11;;;;;;;43.78;19.70;;;;;;;8.38;100.00;97087.57;2147891;83;21023;-64
2022/01/04 11:43:12;;;;;;;45.15;19.90;;;;;;;8.39;100.00;97084.83;2131399;84;21565;-64
2022/01/04 11:46:12;;;;;;;36.68;15.88;;;;;;;8.41;100.00;97069.03;2147880;83;21074;-64
2022/01/04 11:49:13;;;;;;;36.48;16.02;;;;;;;8.41;100.00;97062.02;2131218;84;21095;-64
2022/01/04 11:52:14;;;;;;;37.05;16.73;;;;;;;8.37;100.00;97048.02;2148039;83;21019;-64
2022/01/04 11:55:14;;;;;;;41.30;17.05;;;;;;;8.29;100.00;97046.03;2131435;84;21024;-64
2022/01/04 11:58:17;;;;;;;32.28;15.15;;;;;;;8.22;100.00;97042.25;2147867;83;21027;-64
2022/01/04 12:01:17;;;;;;;29.37;12.93;;;;;;;8.21;100.00;97037.48;2108653;83;21036;-64
2022/01/04 12:04:18;;;;;;;27.87;11.65;;;;;;;8.24;100.00;97032.50;2154799;82;21019;-64
2022/01/04 12:07:18;;;;;;;28.15;12.40;;;;;;;8.27;100.00;97023.11;2134707;83;21039;-64
2022/01/04 12:10:19;;;;;;;24.55;9.83;;;;;;;8.24;100.00;97016.34;2155045;83;20975;-64
2022/01/04 12:13:20;;;;;;;30.12;14.40;;;;;;;8.25;100.00;97010.66;2134850;83;21043;-64
2022/01/04 12:16:20;;;;;;;35.52;15.05;;;;;;;8.24;100.00;96999.36;2154865;83;21055;-64
2022/01/04 12:19:23;;;;;;;37.70;16.73;;;;;;;8.27;100.00;97000.91;2134936;83;21044;-64
2022/01/04 12:22:23;;;;;;;31.73;13.25;;;;;;;8.25;100.00;96994.98;2128676;83;21038;-63
2022/01/04 12:25:24;;;;;;;23.75;7.72;;;;;;;8.21;100.00;96994.39;2134732;83;21000;-64
2022/01/04 12:28:26;;;;;;;23.80;8.28;;;;;;;8.17;100.00;96992.16;2134390;83;21028;-64
2022/01/04 12:31:27;;;;;;;26.82;11.85;;;;;;;8.14;100.00;96986.20;2144901;83;21515;-64
2022/01/04 12:34:27;;;;;;;28.32;10.68;;;;;;;8.14;100.00;96977.55;2144631;83;21031;-65
2022/01/04 12:37:29;;;;;;;25.20;8.90;;;;;;;8.10;100.00;96965.70;2144898;83;21019;-64
2022/01/04 12:40:30;;;;;;;28.35;11.43;;;;;;;8.00;100.00;96965.59;2144823;83;21087;-64
2022/01/04 12:43:30;;;;;;;27.95;9.50;;;;;;;7.95;100.00;96953.41;2144472;83;21546;-64
2022/01/04 12:46:31;;;;;;;30.30;10.45;;;;;;;7.92;100.00;96953.66;2144637;83;21511;-64
2022/01/04 12:49:32;;;;;;;25.68;10.10;;;;;;;7.85;100.00;96944.66;2144817;83;20986;-64
2022/01/04 12:52:32;;;;;;;27.67;10.98;;;;;;;7.86;100.00;96946.30;2154838;83;21351;-64
2022/01/04 12:55:33;;;;;;;29.32;11.50;;;;;;;7.89;100.00;96943.47;2135146;83;21040;-64
2022/01/04 12:58:33;;;;;;;29.12;11.80;;;;;;;7.90;100.00;96938.13;2155200;82;21031;-65
2022/01/04 13:01:34;;;;;;;29.75;11.88;;;;;;;7.90;100.00;96934.66;2134598;83;21032;-64
2022/01/04 13:04:36;;;;;;;27.15;11.70;;;;;;;7.85;100.00;96929.81;2154946;83;21034;-64
2022/01/04 13:07:36;;;;;;;27.90;12.45;;;;;;;7.85;100.00;96925.09;2135215;83;21060;-64
2022/01/04 13:10:37;;;;;;;28.70;12.05;;;;;;;7.85;100.00;96920.68;2155123;83;20978;-64
2022/01/04 13:13:37;;;;;;;27.15;12.23;;;;;;;7.85;100.00;96910.73;2135223;83;20996;-63
2022/01/04 13:16:38;;;;;;;32.28;12.93;;;;;;;7.91;100.00;96906.31;2154750;83;21031;-64
2022/01/04 13:19:38;;;;;;;32.38;12.93;;;;;;;7.96;100.00;96890.63;2135711;83;21495;-64
2022/01/04 13:22:39;;;;;;;29.95;11.88;;;;;;;7.98;100.00;96880.88;2154802;83;21460;-64
2022/01/04 13:25:40;;;;;;;28.95;12.03;;;;;;;7.99;100.00;96873.89;2134740;83;21537;-64
2022/01/04 13:28:40;;;;;;;30.48;12.18;;;;;;;7.94;100.00;96867.75;2155195;83;20983;-63
2022/01/04 13:31:41;;;;;;;30.85;13.08;;;;;;;7.91;100.00;96854.09;2135060;83;21068;-64
2022/01/04 13:34:41;;;;;;;29.45;13.20;;;;;;;7.93;100.00;96847.80;2154964;83;20995;-63
2022/01/04 13:37:42;;;;;;;32.83;12.53;;;;;;;7.94;100.00;96848.17;2135047;83;21045;-63
2022/01/04 13:40:44;;;;;;;30.48;13.53;;;;;;;7.97;100.00;96846.61;2154879;83;21553;-63
2022/01/04 13:43:45;;;;;;;29.75;13.45;;;;;;;7.97;100.00;96832.70;2135515;83;20964;-64
2022/01/04 13:46:46;;;;;;;30.70;13.55;;;;;;;8.02;100.00;96827.12;2154803;83;20947;-63
2022/01/04 13:49:46;;;;;;;38.70;14.85;;;;;;;8.03;100.00;96827.00;2135010;83;21479;-64
2022/01/04 13:52:46;;;;;;;34.65;15.48;;;;;;;8.05;100.00;96823.77;2154842;83;21474;-64
2022/01/04 13:55:47;;;;;;;33.83;15.75;;;;;;;8.07;100.00;96822.34;2135009;83;21028;-64
2022/01/04 13:58:49;;;;;;;36.55;16.67;;;;;;;8.10;100.00;96822.08;2154839;83;20970;-64